createdAt,value
2022-12-16T00:01:49.319Z,75.03
2022-12-16T00:04:18.195Z,75.21
2022-12-16T00:06:46.283Z,75.28
2022-12-16T00:09:14.431Z,75.23
2022-12-16T00:11:42.472Z,75.84
2022-12-16T00:14:10.401Z,75.99
2022-12-16T00:16:39.836Z,75.33
2022-12-16T00:19:07.847Z,75.05
2022-12-16T00:21:37.039Z,75.13
2022-12-16T00:24:05.302Z,75.16
2022-12-16T00:26:33.321Z,75.19
2022-12-16T00:29:01.849Z,74.98
2022-12-16T00:31:30.067Z,75.15
2022-12-16T00:34:00.128Z,75.68
2022-12-16T00:36:28.216Z,75.82
2022-12-16T00:38:56.219Z,76.50
2022-12-16T00:41:24.274Z,76.02
2022-12-16T00:43:52.344Z,76.34
2022-12-16T00:46:20.362Z,76.63
2022-12-16T00:48:48.382Z,75.93
2022-12-16T00:51:17.790Z,76.83
2022-12-16T00:53:45.850Z,77.57
2022-12-16T00:56:15.707Z,77.32
2022-12-16T00:58:43.677Z,78.02
2022-12-16T01:01:12.745Z,77.08
2022-12-16T01:03:41.722Z,76.97
2022-12-16T01:06:11.969Z,77.01
2022-12-16T01:08:48.446Z,76.47
2022-12-16T01:11:17.569Z,76.10
2022-12-16T01:13:46.034Z,75.98
2022-12-16T01:16:14.883Z,75.58
2022-12-16T01:18:42.901Z,76.35
2022-12-16T01:21:15.013Z,76.38
2022-12-16T01:23:44.367Z,77.28
2022-12-16T01:26:17.969Z,77.14
2022-12-16T01:28:46.135Z,76.94
2022-12-16T01:31:16.021Z,76.92
2022-12-16T01:33:44.089Z,77.33
2022-12-16T01:36:12.204Z,77.09
2022-12-16T01:38:42.871Z,77.70
2022-12-16T01:41:12.814Z,79.07
2022-12-16T01:43:43.150Z,78.39
2022-12-16T01:46:19.430Z,77.75
2022-12-16T01:48:52.163Z,77.14
2022-12-16T01:51:25.455Z,76.44
2022-12-16T01:53:58.155Z,76.37
2022-12-16T01:56:32.054Z,76.44
2022-12-16T01:59:01.732Z,76.29
2022-12-16T02:01:30.064Z,77.20
2022-12-16T02:04:02.539Z,76.94
2022-12-16T02:06:31.058Z,76.49
2022-12-16T02:09:02.990Z,77.01
2022-12-16T02:11:55.697Z,76.77
2022-12-16T02:14:45.992Z,76.78
2022-12-16T02:17:17.422Z,77.24
2022-12-16T02:20:15.693Z,77.56
2022-12-16T02:23:04.445Z,77.44
2022-12-16T02:26:09.593Z,76.79
2022-12-16T02:28:59.595Z,76.96
2022-12-16T02:31:36.449Z,76.55
2022-12-16T02:34:16.769Z,76.51
2022-12-16T02:36:57.981Z,76.30
2022-12-16T02:39:32.665Z,76.05
2022-12-16T02:42:08.322Z,75.92
2022-12-16T02:44:45.877Z,76.02
2022-12-16T02:47:15.387Z,76.85
2022-12-16T02:49:47.569Z,77.22
2022-12-16T02:52:17.390Z,77.31
2022-12-16T02:54:47.227Z,77.68
2022-12-16T02:57:33.649Z,77.33
2022-12-16T03:00:06.066Z,77.95
2022-12-16T03:02:43.251Z,77.98
2022-12-16T03:05:16.856Z,78.08
2022-12-16T03:07:46.223Z,78.24
2022-12-16T03:10:18.802Z,78.15
2022-12-16T03:12:47.568Z,78.42
2022-12-16T03:15:18.784Z,79.02
2022-12-16T03:17:51.671Z,78.22
2022-12-16T03:20:24.656Z,77.95
2022-12-16T03:22:55.609Z,78.17
2022-12-16T03:25:24.909Z,77.47
2022-12-16T03:28:00.027Z,77.11
2022-12-16T03:30:31.181Z,77.19
2022-12-16T03:33:04.364Z,77.64
2022-12-16T03:35:39.078Z,78.82
2022-12-16T03:38:11.482Z,78.17
2022-12-16T03:40:42.238Z,77.78
2022-12-16T03:43:12.246Z,77.85
2022-12-16T03:45:43.983Z,77.48
2022-12-16T03:48:16.914Z,76.86
2022-12-16T03:50:45.008Z,77.12
2022-12-16T03:53:12.973Z,77.33
2022-12-16T03:55:41.276Z,78.11
2022-12-16T03:58:09.420Z,77.79
2022-12-16T04:00:37.563Z,77.09
2022-12-16T04:03:05.766Z,77.45
2022-12-16T04:05:35.297Z,77.13
2022-12-16T04:08:03.393Z,77.85
2022-12-16T04:10:54.354Z,77.38
2022-12-16T04:13:55.205Z,77.73
2022-12-16T04:16:41.088Z,78.39
2022-12-16T04:19:36.020Z,78.60
2022-12-16T04:22:28.256Z,79.58
2022-12-16T04:24:56.514Z,79.15
2022-12-16T04:27:27.863Z,78.77
2022-12-16T04:30:13.979Z,78.50
2022-12-16T04:32:59.977Z,79.34
2022-12-16T04:35:45.712Z,79.73
2022-12-16T04:38:32.867Z,78.59
2022-12-16T04:41:18.552Z,78.55
2022-12-16T04:44:04.224Z,79.53
2022-12-16T04:46:49.582Z,79.08
2022-12-16T04:49:35.194Z,78.88
2022-12-16T04:52:20.595Z,78.41
2022-12-16T04:55:07.767Z,78.25
2022-12-16T04:57:53.527Z,78.97
2022-12-16T05:00:39.377Z,78.52
2022-12-16T05:03:25.232Z,78.23
2022-12-16T05:06:10.629Z,78.49
2022-12-16T05:08:56.562Z,78.24
2022-12-16T05:11:43.680Z,78.24
2022-12-16T05:14:29.365Z,78.49
2022-12-16T05:17:14.891Z,78.40
2022-12-16T05:20:00.445Z,79.11
2022-12-16T05:22:46.028Z,79.22
2022-12-16T05:25:31.346Z,79.27
2022-12-16T05:28:18.078Z,78.45
2022-12-16T05:31:03.543Z,78.77
2022-12-16T05:33:49.438Z,79.00
2022-12-16T05:36:34.837Z,79.08
2022-12-16T05:39:20.589Z,79.68
2022-12-16T05:42:05.839Z,78.74
2022-12-16T05:44:53.033Z,79.12
2022-12-16T05:47:38.899Z,79.23
2022-12-16T05:50:25.224Z,80.51
2022-12-16T05:53:17.345Z,80.98
2022-12-16T05:56:02.926Z,80.35
2022-12-16T05:58:50.727Z,79.66
2022-12-16T06:01:37.563Z,79.13
2022-12-16T06:04:23.651Z,79.44
2022-12-16T06:07:08.982Z,79.85
2022-12-16T06:09:56.795Z,79.97
2022-12-16T06:12:42.720Z,79.45
2022-12-16T06:15:28.998Z,79.88
2022-12-16T06:18:15.585Z,79.25
2022-12-16T06:21:09.432Z,80.58
2022-12-16T06:23:54.733Z,80.45
2022-12-16T06:26:40.014Z,79.43
2022-12-16T06:29:27.506Z,80.05
2022-12-16T06:32:13.156Z,79.38
2022-12-16T06:35:00.121Z,80.30
2022-12-16T06:37:45.621Z,80.88
2022-12-16T06:40:30.824Z,79.93
2022-12-16T06:43:16.167Z,80.40
2022-12-16T06:46:01.613Z,79.88
2022-12-16T06:48:46.917Z,80.22
2022-12-16T06:51:33.457Z,80.87
2022-12-16T06:54:18.698Z,80.65
2022-12-16T06:57:03.997Z,80.63
2022-12-16T06:59:51.606Z,80.55
2022-12-16T07:02:37.114Z,80.99
2022-12-16T07:05:22.992Z,81.03
2022-12-16T07:08:10.708Z,80.80
2022-12-16T07:11:02.339Z,81.94
2022-12-16T07:13:55.621Z,81.02
2022-12-16T07:16:41.313Z,81.00
2022-12-16T07:19:26.670Z,80.27
2022-12-16T07:22:11.115Z,79.88
2022-12-16T07:24:57.679Z,80.22
2022-12-16T07:27:43.057Z,80.04
2022-12-16T07:30:29.397Z,79.48
2022-12-16T07:33:14.627Z,79.32
2022-12-16T07:36:01.990Z,79.50
2022-12-16T07:38:47.155Z,78.95
2022-12-16T07:41:34.185Z,78.61
2022-12-16T07:44:23.131Z,78.95
2022-12-16T07:47:12.105Z,78.79
2022-12-16T07:49:58.861Z,78.70
2022-12-16T07:52:44.266Z,80.14
2022-12-16T07:55:29.651Z,79.50
2022-12-16T07:58:16.309Z,79.24
2022-12-16T08:01:06.251Z,78.61
2022-12-16T08:03:54.567Z,79.18
2022-12-16T08:06:41.832Z,79.50
2022-12-16T08:09:27.129Z,79.30
2022-12-16T08:12:12.390Z,79.68
2022-12-16T08:14:58.975Z,79.77
2022-12-16T08:17:44.482Z,79.51
2022-12-16T08:20:29.880Z,79.19
2022-12-16T08:23:15.380Z,79.29
2022-12-16T08:26:00.961Z,78.49
2022-12-16T08:28:46.354Z,77.91
2022-12-16T08:31:33.590Z,77.61
2022-12-16T08:34:18.935Z,78.02
2022-12-16T08:37:04.374Z,77.77
2022-12-16T08:40:10.661Z,77.78
2022-12-16T08:43:00.674Z,77.93
2022-12-16T08:45:46.194Z,77.67
2022-12-16T08:48:33.200Z,78.12
2022-12-16T08:51:20.667Z,77.63
2022-12-16T08:54:06.425Z,77.36
2022-12-16T08:56:51.797Z,77.60
2022-12-16T08:59:37.257Z,78.54
2022-12-16T09:02:23.252Z,78.46
2022-12-16T09:05:10.505Z,78.51
2022-12-16T09:07:57.101Z,78.18
2022-12-16T09:10:42.513Z,77.61
2022-12-16T09:13:30.821Z,77.95
2022-12-16T09:16:19.524Z,77.78
2022-12-16T09:19:05.947Z,78.09
2022-12-16T09:21:53.106Z,77.78
2022-12-16T09:24:40.371Z,79.29
2022-12-16T09:27:25.592Z,80.67
2022-12-16T09:30:11.077Z,79.34
2022-12-16T09:33:01.045Z,81.54
2022-12-16T09:35:46.502Z,81.00
2022-12-16T09:38:33.755Z,82.72
2022-12-16T09:41:41.272Z,83.79
2022-12-16T09:44:41.726Z,83.73
2022-12-16T09:47:37.072Z,82.81
2022-12-16T09:50:23.814Z,83.30
2022-12-16T09:53:14.918Z,85.10
2022-12-16T09:56:04.471Z,84.46
2022-12-16T09:58:56.613Z,86.30
2022-12-16T10:01:43.957Z,88.59
2022-12-16T10:04:29.719Z,86.86
2022-12-16T10:07:18.657Z,86.07
2022-12-16T10:10:16.169Z,86.95
2022-12-16T10:13:11.289Z,88.37
2022-12-16T10:16:04.238Z,85.60
2022-12-16T10:19:03.444Z,86.54
2022-12-16T10:22:09.286Z,87.39
2022-12-16T10:25:05.689Z,88.71
2022-12-16T10:27:57.301Z,89.04
2022-12-16T10:30:44.393Z,88.91
2022-12-16T10:33:33.943Z,89.14
2022-12-16T10:36:20.092Z,87.83
2022-12-16T10:39:10.612Z,89.03
2022-12-16T10:41:59.104Z,89.64
2022-12-16T10:44:50.493Z,88.92
2022-12-16T10:47:39.534Z,89.91
2022-12-16T10:50:25.786Z,87.79
2022-12-16T10:53:17.018Z,87.28
2022-12-16T10:56:13.704Z,88.40
2022-12-16T10:59:18.082Z,87.92
2022-12-16T11:02:16.245Z,89.17
2022-12-16T11:05:03.809Z,88.26
2022-12-16T11:07:52.081Z,87.73
2022-12-16T11:10:57.142Z,86.34
2022-12-16T11:13:44.538Z,86.11
2022-12-16T11:16:33.278Z,85.54
2022-12-16T11:19:19.127Z,83.53
2022-12-16T11:22:06.418Z,82.79
2022-12-16T11:24:52.199Z,85.68
2022-12-16T11:27:42.984Z,86.41
2022-12-16T11:30:37.825Z,85.10
2022-12-16T11:33:31.115Z,83.87
2022-12-16T11:36:26.030Z,87.07
2022-12-16T11:39:13.099Z,86.36
2022-12-16T11:42:00.389Z,84.65
2022-12-16T11:44:51.613Z,84.39
2022-12-16T11:47:46.245Z,83.70
2022-12-16T11:50:36.054Z,84.92
2022-12-16T11:53:23.867Z,83.42
2022-12-16T11:56:16.208Z,83.07
2022-12-16T11:59:05.424Z,85.07
2022-12-16T12:01:56.567Z,86.45
2022-12-16T12:04:42.450Z,86.69
2022-12-16T12:07:45.327Z,88.08
2022-12-16T12:10:57.662Z,84.75
2022-12-16T12:14:01.442Z,84.53
2022-12-16T12:16:56.252Z,82.27
2022-12-16T12:19:54.690Z,82.92
2022-12-16T12:22:51.385Z,82.93
2022-12-16T12:25:43.398Z,82.37
2022-12-16T12:28:40.223Z,83.69
2022-12-16T12:31:40.984Z,84.57
2022-12-16T12:34:37.710Z,86.55
2022-12-16T12:37:31.763Z,84.80
2022-12-16T12:40:28.003Z,83.29
2022-12-16T12:43:15.251Z,83.92
2022-12-16T12:46:12.300Z,83.91
2022-12-16T12:49:05.986Z,83.96
2022-12-16T12:52:00.557Z,83.29
2022-12-16T12:54:49.611Z,83.77
2022-12-16T12:57:41.387Z,83.73
2022-12-16T13:00:35.889Z,81.62
2022-12-16T13:03:26.870Z,81.67
2022-12-16T13:06:14.634Z,81.89
2022-12-16T13:09:13.517Z,82.12
2022-12-16T13:12:24.070Z,80.70
2022-12-16T13:15:15.278Z,80.18
2022-12-16T13:18:38.245Z,82.21
2022-12-16T13:22:04.914Z,79.73
2022-12-16T13:25:05.785Z,78.25
2022-12-16T13:28:08.133Z,80.46
2022-12-16T13:30:54.284Z,82.24
2022-12-16T13:33:46.325Z,82.52
2022-12-16T13:36:33.981Z,80.75
2022-12-16T13:39:41.038Z,79.17
2022-12-16T13:43:05.588Z,79.47
2022-12-16T13:45:53.776Z,78.44
2022-12-16T13:48:51.041Z,79.88
2022-12-16T13:52:25.822Z,79.34
2022-12-16T13:55:24.945Z,78.10
2022-12-16T13:58:23.507Z,77.95
2022-12-16T14:01:29.636Z,77.75
2022-12-16T14:04:17.489Z,78.28
2022-12-16T14:07:04.171Z,80.96
2022-12-16T14:09:54.141Z,77.56
2022-12-16T14:13:02.614Z,79.47
2022-12-16T14:15:53.941Z,81.53
2022-12-16T14:18:51.696Z,80.42
2022-12-16T14:21:47.927Z,79.72
2022-12-16T14:24:42.407Z,82.52
2022-12-16T14:27:37.467Z,80.47
2022-12-16T14:30:36.079Z,79.12
2022-12-16T14:33:31.323Z,77.61
2022-12-16T14:36:17.353Z,77.66
2022-12-16T14:39:07.439Z,76.98
2022-12-16T14:41:53.344Z,75.89
2022-12-16T14:44:41.301Z,75.75
2022-12-16T14:47:36.331Z,75.90
2022-12-16T14:50:22.810Z,75.56
2022-12-16T14:53:08.075Z,74.95
2022-12-16T14:55:54.192Z,76.56
2022-12-16T14:58:53.043Z,76.13
2022-12-16T15:01:41.825Z,75.10
2022-12-16T15:04:36.041Z,74.69
2022-12-16T15:07:30.787Z,74.65
2022-12-16T15:10:26.513Z,73.97
2022-12-16T15:13:11.988Z,73.70
2022-12-16T15:16:01.048Z,73.78
2022-12-16T15:18:51.626Z,74.70
2022-12-16T15:21:38.817Z,76.44
2022-12-16T15:24:27.609Z,77.29
2022-12-16T15:27:40.936Z,78.07
2022-12-16T15:30:51.356Z,78.04
2022-12-16T15:33:39.329Z,77.12
2022-12-16T15:36:31.279Z,77.00
2022-12-16T15:39:18.312Z,77.83
2022-12-16T15:42:06.092Z,78.35
2022-12-16T15:44:52.258Z,77.64
2022-12-16T15:47:44.896Z,77.98
2022-12-16T15:50:32.718Z,76.48
2022-12-16T15:53:33.961Z,76.14
2022-12-16T15:56:32.832Z,75.86
2022-12-16T15:59:33.111Z,75.68
2022-12-16T16:02:25.126Z,75.98
2022-12-16T16:05:12.273Z,75.75
2022-12-16T16:08:03.343Z,75.23
2022-12-16T16:10:49.261Z,76.63
2022-12-16T16:13:36.651Z,76.45
2022-12-16T16:16:22.349Z,75.57
2022-12-16T16:19:08.145Z,75.50
2022-12-16T16:21:53.832Z,76.30
2022-12-16T16:24:39.206Z,76.75
2022-12-16T16:27:29.997Z,80.50
2022-12-16T16:30:17.511Z,78.27
2022-12-16T16:33:03.865Z,77.03
2022-12-16T16:35:49.899Z,76.62
2022-12-16T16:38:35.382Z,76.63
2022-12-16T16:41:21.282Z,75.86
2022-12-16T16:44:06.530Z,76.63
2022-12-16T16:46:56.068Z,76.52
2022-12-16T16:49:43.466Z,75.74
2022-12-16T16:52:30.812Z,75.17
2022-12-16T16:55:16.266Z,75.65
2022-12-16T16:58:02.092Z,75.59
2022-12-16T17:00:47.128Z,75.12
2022-12-16T17:03:35.048Z,75.42
2022-12-16T17:06:21.509Z,74.70
2022-12-16T17:09:07.301Z,74.64
2022-12-16T17:11:53.204Z,75.31
2022-12-16T17:14:40.030Z,75.72
2022-12-16T17:17:25.697Z,75.46
2022-12-16T17:20:14.906Z,75.51
2022-12-16T17:23:00.721Z,76.76
2022-12-16T17:25:57.495Z,76.56
2022-12-16T17:28:42.484Z,79.99
2022-12-16T17:31:29.436Z,82.54
2022-12-16T17:34:14.862Z,83.91
2022-12-16T17:37:01.775Z,81.92
2022-12-16T17:39:47.255Z,80.52
2022-12-16T17:42:32.552Z,80.15
2022-12-16T17:45:18.322Z,79.26
2022-12-16T17:48:03.653Z,78.83
2022-12-16T17:50:48.927Z,78.09
2022-12-16T17:53:35.885Z,80.15
2022-12-16T17:56:23.093Z,80.45
2022-12-16T17:59:10.943Z,79.58
2022-12-16T18:01:56.926Z,81.96
2022-12-16T18:04:42.862Z,82.26
2022-12-16T18:07:28.131Z,80.15
2022-12-16T18:10:17.160Z,81.98
2022-12-16T18:13:02.885Z,82.70
2022-12-16T18:15:48.333Z,83.76
2022-12-16T18:18:33.634Z,84.81
2022-12-16T18:21:27.525Z,84.57
2022-12-16T18:24:12.802Z,84.53
2022-12-16T18:26:59.907Z,84.37
2022-12-16T18:29:45.895Z,83.17
2022-12-16T18:32:35.093Z,81.17
2022-12-16T18:35:21.165Z,80.69
2022-12-16T18:38:06.512Z,80.58
2022-12-16T18:40:52.369Z,80.21
2022-12-16T18:43:38.922Z,79.87
2022-12-16T18:46:24.625Z,80.25
2022-12-16T18:49:09.942Z,79.71
2022-12-16T18:51:55.449Z,79.89
2022-12-16T18:54:40.903Z,79.92
2022-12-16T18:57:26.118Z,79.82
2022-12-16T19:00:12.916Z,81.90
2022-12-16T19:02:58.537Z,81.59
2022-12-16T19:05:44.291Z,84.54
2022-12-16T19:08:29.687Z,84.88
2022-12-16T19:11:15.984Z,85.60
2022-12-16T19:14:01.775Z,85.35
2022-12-16T19:16:49.082Z,85.68
2022-12-16T19:19:34.493Z,85.49
2022-12-16T19:22:20.280Z,86.81
2022-12-16T19:25:05.821Z,86.97
2022-12-16T19:27:51.217Z,86.91
2022-12-16T19:30:37.514Z,86.55
2022-12-16T19:33:24.545Z,86.74
2022-12-16T19:36:09.893Z,86.11
2022-12-16T19:38:56.518Z,85.36
2022-12-16T19:41:42.074Z,84.87
2022-12-16T19:44:27.844Z,85.48
2022-12-16T19:47:13.287Z,84.37
2022-12-16T19:49:59.893Z,83.70
2022-12-16T19:52:45.639Z,81.97
2022-12-16T19:55:30.835Z,81.28
2022-12-16T19:58:16.444Z,80.83
2022-12-16T20:01:02.090Z,81.14
2022-12-16T20:03:48.089Z,81.24
2022-12-16T20:06:31.699Z,79.65
2022-12-16T20:09:17.290Z,79.26
2022-12-16T20:12:03.103Z,79.51
2022-12-16T20:15:05.557Z,78.92
2022-12-16T20:17:51.733Z,80.36
2022-12-16T20:20:37.598Z,80.52
2022-12-16T20:23:24.612Z,79.88
2022-12-16T20:26:14.534Z,81.35
2022-12-16T20:28:59.927Z,80.61
2022-12-16T20:31:45.806Z,79.48
2022-12-16T20:34:31.800Z,79.25
2022-12-16T20:37:25.786Z,80.35
2022-12-16T20:40:12.698Z,81.60
2022-12-16T20:42:58.219Z,80.69
2022-12-16T20:45:43.585Z,78.57
2022-12-16T20:48:32.475Z,78.78
2022-12-16T20:51:26.542Z,79.14
2022-12-16T20:54:13.326Z,78.96
2022-12-16T20:57:08.281Z,80.71
2022-12-16T21:00:09.425Z,79.97
2022-12-16T21:02:55.083Z,79.70
2022-12-16T21:05:41.342Z,80.07
2022-12-16T21:08:28.901Z,79.99
2022-12-16T21:11:15.341Z,80.56
2022-12-16T21:14:02.325Z,82.82
2022-12-16T21:16:47.916Z,81.46
2022-12-16T21:19:33.935Z,81.00
2022-12-16T21:22:19.309Z,84.40
2022-12-16T21:25:04.884Z,86.94
2022-12-16T21:27:50.397Z,85.58
2022-12-16T21:30:37.642Z,85.86
2022-12-16T21:33:23.401Z,88.72
2022-12-16T21:36:12.479Z,88.10
2022-12-16T21:38:57.962Z,87.23
2022-12-16T21:41:42.457Z,88.13
2022-12-16T21:44:27.695Z,88.95
2022-12-16T21:47:14.532Z,88.37
2022-12-16T21:49:59.980Z,87.30
2022-12-16T21:52:45.679Z,88.18
2022-12-16T21:55:36.375Z,89.46
2022-12-16T21:58:22.220Z,90.14
2022-12-16T22:01:12.937Z,90.23
2022-12-16T22:03:59.969Z,89.96
2022-12-16T22:06:48.841Z,89.70
2022-12-16T22:09:35.016Z,88.17
2022-12-16T22:12:20.233Z,85.97
2022-12-16T22:15:05.576Z,85.33
2022-12-16T22:17:57.773Z,86.26
2022-12-16T22:20:45.305Z,87.38
2022-12-16T22:23:31.231Z,87.90
2022-12-16T22:26:17.539Z,89.55
2022-12-16T22:29:14.826Z,89.58
2022-12-16T22:32:00.171Z,88.78
2022-12-16T22:34:45.569Z,90.42
2022-12-16T22:37:32.363Z,90.96
2022-12-16T22:40:17.958Z,91.77
2022-12-16T22:43:06.578Z,92.01
2022-12-16T22:45:51.986Z,91.68
2022-12-16T22:48:37.214Z,90.95
2022-12-16T22:51:23.233Z,89.69
2022-12-16T22:54:09.774Z,90.05
2022-12-16T22:56:56.308Z,89.16
2022-12-16T22:59:42.011Z,86.88
2022-12-16T23:02:27.346Z,86.97
2022-12-16T23:05:12.590Z,87.05
2022-12-16T23:07:57.791Z,86.18
2022-12-16T23:10:44.746Z,84.39
2022-12-16T23:13:31.156Z,83.92
2022-12-16T23:16:16.989Z,84.90
2022-12-16T23:19:10.720Z,86.32
2022-12-16T23:22:07.651Z,87.19
2022-12-16T23:24:53.347Z,86.80
2022-12-16T23:27:40.666Z,87.62
2022-12-16T23:30:27.700Z,86.26
2022-12-16T23:33:16.525Z,86.36
2022-12-16T23:36:01.836Z,86.85
2022-12-16T23:38:47.161Z,85.62
2022-12-16T23:41:32.455Z,84.79
2022-12-16T23:44:19.575Z,84.11
2022-12-16T23:47:04.917Z,83.49
2022-12-16T23:49:50.142Z,82.79
2022-12-16T23:52:37.799Z,84.53
2022-12-16T23:55:24.347Z,84.69
2022-12-16T23:58:17.022Z,86.64
